NEOK1: Neosho R at Neosho Rapids, KS

                                SHEF ID:       NEOK1     NEOSHO R AT NEOSHO RAPIDS, KS
STATION TYPE:

STAGE RIV-FLOW BAT-LOAD
ft cfs volt
Ccp-Rev Ccp-Rev Ccp-Rev
(America/Chicago)
04/26 00:00 11.60 7105 12.56
04/26 01:00 11.47 6995 12.53
04/26 02:00 11.32 6869 12.52
04/26 03:00 11.15 6726 12.50
04/26 04:00 10.99 6593 12.48
04/26 05:00 10.82 6452 12.46
04/26 06:00 10.65 6312 12.42
04/26 07:00 10.48 6173 12.40
04/26 08:00 10.32 6043 12.50
04/26 09:00 10.17 5922 12.57
04/26 10:00 10.03 5809 13.28
04/26 11:00 9.89 5697 13.13
04/26 12:00 9.77 5601 ----
04/26 13:00 9.65 5506 13.05
04/26 14:00 9.54 5419 12.84
04/26 15:00 9.42 5325 12.65
04/26 16:00 9.39 5301 12.61
04/26 17:00 9.34 5262 12.68
04/26 18:00 9.27 5207 12.84
04/26 19:00 9.37 5285 12.76
04/26 20:00 9.43 5333 12.73
04/26 21:00 9.51 5395 12.57
04/26 22:00 9.58 5451 12.54
04/26 23:00 9.66 5514 12.53
Data processed at Mon 27Apr2026 04:36 GMT

NOTICE: If you are parsing this page

Please convert to using our Data API. Starting early 2026 we will be migrating to: https://water.usace.army.mil with modern pages rendered in JavaScript. When this migration completes you will no longer be able to scrape this page! CWMSDataAPI (CDA)

Timeseries IDs (TSIDs)

TSIDs used from left to right in the data table
NEOR.Stage.Inst.1Hour.0.Ccp-Rev
NEOR.Flow.Inst.1Hour.0.Ccp-Rev
NEOR.Volt-Battery Load.Inst.1Hour.0.Ccp-Rev

                            

All information presented herein is the property of the government of the United States of America and may be revised or deleted at any time without prior notice. Dissemination of this information without the expressed written consent of the Public Affairs Office, Tulsa District U.S. Army Corps of Engineers is strictly prohibited. These data are gathered electronically and, as presented, have NOT undergone any form of quality control. These data are NOT guaranteed to be valid or correct.